KAVC

Mecklenburg-Brunswick Regional Airport

South Hill, Virginia, USA
METAR KAVC 191655Z AUTO 00000KT 10SM BKN032 28/23 A3001 RMK AO2 T02790233
Observed Flight Rules
Aug-19 @ 16:55 UTC (19 minutes ago) Visual Flight Rules
Visibility Clouds
10 miles
  • Broken at 3,200' AGL
Temperatures Readings
Current 28°C / 82°F
Dewpoint 23°C / 73°F
Humidity 74%
Altimeter 30.01" Hg
Pressure 1016 hPa
Elevation 135
METAR KAVC 191655Z AUTO 00000KT 10SM BKN032 28/23 A3001 RMK AO2 T02790233
Observed Flight Rules
Aug-19 @ 16:55 UTC
(19 minutes ago)
VFR
Clouds
  • Broken at 3,200' AGL
Temperature Dewpoint
28°C / 82°F 23°C / 73°F
Humidity Altimeter Pressure
74% 30.01" Hg 1016 hPa